createdAt,value
2019-06-10T00:00:51.844Z,91.10
2019-06-10T00:03:27.709Z,91.60
2019-06-10T00:06:04.111Z,92.10
2019-06-10T00:08:41.456Z,92.10
2019-06-10T00:11:17.118Z,92.20
2019-06-10T00:13:54.698Z,92.20
2019-06-10T00:16:31.759Z,92.30
2019-06-10T00:19:12.711Z,92.30
2019-06-10T00:21:50.965Z,92.10
2019-06-10T00:24:31.451Z,92.30
2019-06-10T00:27:09.349Z,92.30
2019-06-10T00:29:48.157Z,92.40
2019-06-10T00:32:27.139Z,92.30
2019-06-10T00:35:04.617Z,92.30
2019-06-10T00:37:43.635Z,91.80
2019-06-10T00:40:21.505Z,91.70
2019-06-10T00:42:56.248Z,91.20
2019-06-10T00:45:36.644Z,91.00
2019-06-10T00:48:25.301Z,89.50
2019-06-10T00:50:54.851Z,89.20
2019-06-10T00:53:32.804Z,89.40
2019-06-10T00:56:13.826Z,89.10
2019-06-10T00:58:47.951Z,89.10
2019-06-10T01:01:25.662Z,88.20
2019-06-10T01:04:07.364Z,85.70
2019-06-10T01:06:48.226Z,85.70
2019-06-10T01:09:23.840Z,85.50
2019-06-10T01:12:01.176Z,84.90
2019-06-10T01:14:41.023Z,84.60
2019-06-10T01:17:25.806Z,84.60
2019-06-10T01:20:01.808Z,83.60
2019-06-10T01:22:37.951Z,83.70
2019-06-10T01:25:17.748Z,83.10
2019-06-10T01:27:53.382Z,83.60
2019-06-10T01:30:31.329Z,80.80
2019-06-10T01:33:10.594Z,82.40
2019-06-10T01:35:46.608Z,82.60
2019-06-10T01:38:22.247Z,81.10
2019-06-10T01:41:01.891Z,82.30
2019-06-10T01:43:40.795Z,82.60
2019-06-10T01:46:22.595Z,82.20
2019-06-10T01:49:02.651Z,81.90
2019-06-10T01:51:43.563Z,80.30
2019-06-10T01:54:21.620Z,81.60
2019-06-10T01:56:58.141Z,79.30
2019-06-10T01:59:37.183Z,79.00
2019-06-10T02:02:17.323Z,80.10
2019-06-10T02:04:53.879Z,79.30
2019-06-10T02:07:31.794Z,78.80
2019-06-10T02:10:26.826Z,78.20
2019-06-10T02:13:01.958Z,78.40
2019-06-10T02:15:37.991Z,77.40
2019-06-10T02:18:18.207Z,77.00
2019-06-10T02:20:56.034Z,75.80
2019-06-10T02:23:32.748Z,75.90
2019-06-10T02:26:08.094Z,76.10
2019-06-10T02:28:44.908Z,77.10
2019-06-10T02:31:30.192Z,76.00
2019-06-10T02:34:13.211Z,76.30
2019-06-10T02:36:48.879Z,75.00
2019-06-10T02:39:32.275Z,74.50
2019-06-10T02:42:08.339Z,75.10
2019-06-10T02:44:54.125Z,73.60
2019-06-10T02:47:38.466Z,74.80
2019-06-10T02:50:20.976Z,73.50
2019-06-10T02:52:54.121Z,74.30
2019-06-10T02:55:34.223Z,73.20
2019-06-10T02:58:15.209Z,72.50
2019-06-10T03:00:49.427Z,72.70
2019-06-10T03:03:39.426Z,72.70
2019-06-10T03:06:08.991Z,72.70
2019-06-10T03:08:45.663Z,70.60
2019-06-10T03:11:27.928Z,71.10
2019-06-10T03:14:07.795Z,70.20
2019-06-10T03:16:45.453Z,70.50
2019-06-10T03:19:41.837Z,70.20
2019-06-10T03:22:13.084Z,70.70
2019-06-10T03:24:53.628Z,68.80
2019-06-10T03:27:32.712Z,71.10
2019-06-10T03:30:20.526Z,71.30
2019-06-10T03:35:52.300Z,70.80
2019-06-10T03:38:38.658Z,70.00
2019-06-10T03:41:16.523Z,69.70
2019-06-10T03:43:56.832Z,71.30
2019-06-10T03:46:43.209Z,70.10
2019-06-10T03:49:21.874Z,69.90
2019-06-10T03:52:04.227Z,68.70
2019-06-10T03:54:43.463Z,68.80
2019-06-10T03:57:26.829Z,69.50
2019-06-10T04:00:03.483Z,68.50
2019-06-10T04:02:43.245Z,66.60
2019-06-10T04:05:23.856Z,67.70
2019-06-10T04:08:19.392Z,68.90
2019-06-10T04:11:06.515Z,67.30
2019-06-10T04:13:40.216Z,67.10
2019-06-10T04:16:26.682Z,67.30
2019-06-10T04:19:03.114Z,65.90
2019-06-10T04:21:43.457Z,65.80
2019-06-10T04:24:25.135Z,64.20
2019-06-10T04:27:05.385Z,66.20
2019-06-10T04:29:45.804Z,66.00
2019-06-10T04:32:25.798Z,66.50
2019-06-10T04:35:04.563Z,66.30
2019-06-10T04:37:51.914Z,65.10
2019-06-10T04:40:29.355Z,64.60
2019-06-10T04:43:05.849Z,63.50
2019-06-10T04:45:55.150Z,62.30
2019-06-10T04:48:36.128Z,61.50
2019-06-10T04:51:13.780Z,61.20
2019-06-10T04:53:52.698Z,61.50
2019-06-10T04:59:27.304Z,58.90
2019-06-10T05:02:12.824Z,59.60
2019-06-10T05:04:54.436Z,62.00
2019-06-10T05:07:37.059Z,60.60
2019-06-10T05:10:14.112Z,60.50
2019-06-10T05:12:52.556Z,60.90
2019-06-10T05:21:24.562Z,61.60
2019-06-10T05:24:02.916Z,61.90
2019-06-10T05:26:42.452Z,60.20
2019-06-10T05:29:16.607Z,59.90
2019-06-10T05:31:56.634Z,60.40
2019-06-10T05:34:34.645Z,61.90
2019-06-10T05:37:14.183Z,60.40
2019-06-10T05:42:43.503Z,60.00
2019-06-10T05:45:25.600Z,59.50
2019-06-10T05:48:02.836Z,58.60
2019-06-10T05:50:39.754Z,58.90
2019-06-10T05:53:15.564Z,58.60
2019-06-10T05:55:52.948Z,59.90
2019-06-10T05:58:35.976Z,60.50
2019-06-10T06:01:13.238Z,60.40
2019-06-10T06:03:52.656Z,60.90
2019-06-10T06:06:33.444Z,58.30
2019-06-10T06:09:14.863Z,59.30
2019-06-10T06:14:45.914Z,68.80
2019-06-10T06:17:23.460Z,70.90
2019-06-10T06:20:13.113Z,71.60
2019-06-10T06:22:52.119Z,72.60
2019-06-10T06:25:29.871Z,73.40
2019-06-10T06:28:22.946Z,74.00
2019-06-10T06:30:59.657Z,74.00
2019-06-10T06:33:37.740Z,73.50
2019-06-10T06:36:22.681Z,72.30
2019-06-10T06:39:02.300Z,71.90
2019-06-10T06:41:39.141Z,73.40
2019-06-10T06:44:19.488Z,73.60
2019-06-10T06:47:13.193Z,72.00
2019-06-10T06:49:55.525Z,71.80
2019-06-10T06:53:00.937Z,71.50
2019-06-10T06:55:13.120Z,71.10
2019-06-10T06:57:52.910Z,70.70
2019-06-10T07:00:52.753Z,69.20
2019-06-10T07:03:22.866Z,68.70
2019-06-10T07:06:09.814Z,68.20
2019-06-10T07:09:01.504Z,68.40
2019-06-10T07:11:37.060Z,69.90
2019-06-10T07:14:12.938Z,69.50
2019-06-10T07:16:58.724Z,69.90
2019-06-10T07:19:45.754Z,69.90
2019-06-10T07:25:14.271Z,70.50
2019-06-10T07:27:56.423Z,71.70
2019-06-10T07:30:39.454Z,72.40
2019-06-10T07:33:18.147Z,72.50
2019-06-10T07:36:03.867Z,73.40
2019-06-10T07:38:49.258Z,74.00
2019-06-10T07:41:34.387Z,73.50
2019-06-10T07:44:12.477Z,74.00
2019-06-10T07:47:05.206Z,74.10
2019-06-10T07:49:45.659Z,74.00
2019-06-10T07:52:23.495Z,74.20
2019-06-10T07:55:02.363Z,75.40
2019-06-10T07:57:43.898Z,75.40
2019-06-10T08:00:22.865Z,75.00
2019-06-10T08:03:02.274Z,74.80
2019-06-10T08:05:46.680Z,74.20
2019-06-10T08:08:26.608Z,74.80
2019-06-10T08:11:06.657Z,74.80
2019-06-10T08:13:46.168Z,74.30
2019-06-10T08:16:23.364Z,74.40
2019-06-10T08:19:22.021Z,74.00
2019-06-10T08:21:37.663Z,74.40
2019-06-10T08:24:13.823Z,74.90
2019-06-10T08:26:49.835Z,75.30
2019-06-10T08:29:28.823Z,75.50
2019-06-10T08:32:06.605Z,76.60
2019-06-10T08:34:56.801Z,77.70
2019-06-10T08:37:33.214Z,77.30
2019-06-10T08:40:15.348Z,77.00
2019-06-10T08:42:53.748Z,76.80
2019-06-10T08:45:38.906Z,78.10
2019-06-10T08:48:18.382Z,79.00
2019-06-10T08:50:55.193Z,79.00
2019-06-10T08:53:32.999Z,78.80
2019-06-10T08:56:32.690Z,78.40
2019-06-10T08:58:59.957Z,78.50
2019-06-10T09:01:30.373Z,78.80
2019-06-10T09:04:19.575Z,79.20
2019-06-10T09:07:23.222Z,78.40
2019-06-10T09:10:02.896Z,79.00
2019-06-10T09:12:45.584Z,79.20
2019-06-10T09:15:24.629Z,78.70
2019-06-10T09:18:04.717Z,79.30
2019-06-10T09:20:48.780Z,80.00
2019-06-10T09:23:23.170Z,79.00
2019-06-10T09:26:03.650Z,77.60
2019-06-10T09:28:41.502Z,76.60
2019-06-10T09:31:19.396Z,76.90
2019-06-10T09:33:57.007Z,76.60
2019-06-10T09:36:33.546Z,74.50
2019-06-10T09:39:19.135Z,76.00
2019-06-10T09:42:06.139Z,75.70
2019-06-10T09:44:45.885Z,76.00
2019-06-10T09:47:22.523Z,75.20
2019-06-10T09:49:59.598Z,76.00
2019-06-10T09:52:36.112Z,74.70
2019-06-10T09:55:23.265Z,76.10
2019-06-10T09:58:09.046Z,75.30
2019-06-10T10:00:57.241Z,74.80
2019-06-10T10:03:32.732Z,74.20
2019-06-10T10:06:14.965Z,75.40
2019-06-10T10:08:52.661Z,75.10
2019-06-10T10:11:28.460Z,75.00
2019-06-10T10:14:09.609Z,74.40
2019-06-10T10:16:52.150Z,74.80
2019-06-10T10:19:24.271Z,75.20
2019-06-10T10:22:03.265Z,75.90
2019-06-10T10:24:39.455Z,75.00
2019-06-10T10:27:17.279Z,75.10
2019-06-10T10:29:56.970Z,75.30
2019-06-10T10:32:33.428Z,74.60
2019-06-10T10:35:09.675Z,75.20
2019-06-10T10:37:46.392Z,75.60
2019-06-10T10:40:26.970Z,75.90
2019-06-10T10:43:22.561Z,75.60
2019-06-10T10:45:43.442Z,75.20
2019-06-10T10:48:17.831Z,75.70
2019-06-10T10:50:56.027Z,75.70
2019-06-10T10:53:32.818Z,75.80
2019-06-10T10:56:12.586Z,76.00
2019-06-10T10:58:55.528Z,76.10
2019-06-10T11:01:28.222Z,76.70
2019-06-10T11:04:08.286Z,76.50
2019-06-10T11:06:44.457Z,76.00
2019-06-10T11:09:22.361Z,76.00
2019-06-10T11:11:59.790Z,75.80
2019-06-10T11:14:39.517Z,76.20
2019-06-10T11:17:19.871Z,76.80
2019-06-10T11:19:57.783Z,77.20
2019-06-10T11:22:33.789Z,77.40
2019-06-10T11:25:09.750Z,77.50
2019-06-10T11:27:50.125Z,77.50
2019-06-10T11:30:25.896Z,78.50
2019-06-10T11:33:10.742Z,78.20
2019-06-10T11:35:48.951Z,78.30
2019-06-10T11:38:26.316Z,78.50
2019-06-10T11:41:04.925Z,78.60
2019-06-10T11:43:57.749Z,78.80
2019-06-10T11:46:33.204Z,78.70
2019-06-10T11:49:09.598Z,79.40
2019-06-10T11:51:52.631Z,79.40
2019-06-10T11:54:29.613Z,79.10
2019-06-10T11:57:06.780Z,79.20
2019-06-10T11:59:48.000Z,79.30
2019-06-10T12:02:27.349Z,79.80
2019-06-10T12:05:13.236Z,79.70
2019-06-10T12:07:56.372Z,79.50
2019-06-10T12:10:33.084Z,80.70
2019-06-10T12:13:13.396Z,81.20
2019-06-10T12:16:48.851Z,81.50
2019-06-10T12:18:35.150Z,81.20
2019-06-10T12:21:14.860Z,81.10
2019-06-10T12:23:56.982Z,81.40
2019-06-10T12:26:35.739Z,81.30
2019-06-10T12:29:22.547Z,81.20
2019-06-10T12:32:02.827Z,81.40
2019-06-10T12:34:51.279Z,81.30
2019-06-10T12:37:36.867Z,81.40
2019-06-10T12:40:17.884Z,81.60
2019-06-10T12:45:53.966Z,81.10
2019-06-10T12:48:33.192Z,81.40
2019-06-10T12:51:09.529Z,81.60
2019-06-10T12:53:48.211Z,82.10
2019-06-10T12:56:23.861Z,81.30
2019-06-10T12:59:07.675Z,81.60
2019-06-10T13:01:40.495Z,82.00
2019-06-10T13:04:18.497Z,81.50
2019-06-10T13:07:00.150Z,81.20
2019-06-10T13:09:44.872Z,82.20
2019-06-10T13:12:22.949Z,82.60
2019-06-10T13:14:59.977Z,83.20
2019-06-10T13:17:37.772Z,83.00
2019-06-10T13:20:32.850Z,83.70
2019-06-10T13:23:20.241Z,82.90
2019-06-10T13:25:57.934Z,81.30
2019-06-10T13:28:35.832Z,82.50
2019-06-10T13:31:15.359Z,83.00
2019-06-10T13:33:52.914Z,83.50
2019-06-10T13:36:37.463Z,82.00
2019-06-10T13:39:22.136Z,82.00
2019-06-10T13:42:06.857Z,82.50
2019-06-10T13:47:37.363Z,82.70
2019-06-10T13:50:14.768Z,83.40
2019-06-10T13:55:47.155Z,83.40
2019-06-10T13:58:25.060Z,84.30
2019-06-10T14:04:02.898Z,84.80
2019-06-10T14:06:47.027Z,84.50
2019-06-10T14:12:18.826Z,83.70
2019-06-10T14:15:04.126Z,83.60
2019-06-10T14:17:52.751Z,83.40
2019-06-10T14:20:29.583Z,84.10
2019-06-10T14:23:13.604Z,83.90
2019-06-10T14:28:44.275Z,84.10
2019-06-10T14:31:38.583Z,83.60
2019-06-10T14:34:10.623Z,82.70
2019-06-10T14:36:46.874Z,82.10
2019-06-10T14:39:32.914Z,82.20
2019-06-10T14:42:27.419Z,82.30
2019-06-10T14:45:07.201Z,80.70
2019-06-10T14:47:47.886Z,80.40
2019-06-10T14:50:32.485Z,80.10
2019-06-10T14:53:11.772Z,79.60
2019-06-10T14:55:56.647Z,79.70
2019-06-10T14:58:42.464Z,79.60
2019-06-10T15:07:42.174Z,78.30
2019-06-10T15:10:25.914Z,78.70
2019-06-10T15:13:09.670Z,78.60
2019-06-10T15:15:52.954Z,77.70
2019-06-10T15:18:29.822Z,78.30
2019-06-10T15:21:08.999Z,79.70
2019-06-10T15:24:05.079Z,79.20
2019-06-10T15:29:37.765Z,80.70
2019-06-10T15:32:32.886Z,81.40
2019-06-10T15:38:04.104Z,81.60
2019-06-10T15:40:43.907Z,81.60
2019-06-10T15:43:25.050Z,81.20
2019-06-10T15:49:02.412Z,81.50
2019-06-10T15:51:39.881Z,82.20
2019-06-10T15:54:25.849Z,81.90
2019-06-10T16:00:11.312Z,81.50
2019-06-10T16:02:52.535Z,82.00
2019-06-10T16:05:46.711Z,82.00
2019-06-10T16:08:27.067Z,82.50
2019-06-10T16:11:04.422Z,82.20
2019-06-10T16:13:47.673Z,82.70
2019-06-10T16:16:32.504Z,82.90
2019-06-10T16:19:28.358Z,82.50
2019-06-10T16:22:12.792Z,82.10
2019-06-10T16:24:58.539Z,82.30
2019-06-10T16:27:48.587Z,81.60
2019-06-10T16:36:14.858Z,82.30
2019-06-10T16:38:54.148Z,81.90
2019-06-10T16:41:33.272Z,82.90
2019-06-10T16:47:25.045Z,83.10
2019-06-10T16:49:56.434Z,83.40
2019-06-10T16:52:34.272Z,83.60
2019-06-10T16:55:12.751Z,82.60
2019-06-10T16:57:59.286Z,82.90
2019-06-10T17:00:34.745Z,82.80
2019-06-10T17:03:12.770Z,83.40
2019-06-10T17:05:53.101Z,83.50
2019-06-10T17:11:38.264Z,84.40
2019-06-10T17:14:16.226Z,83.50
2019-06-10T17:16:56.428Z,83.70
2019-06-10T17:19:33.401Z,83.40
2019-06-10T17:22:12.627Z,83.50
2019-06-10T17:24:57.084Z,83.50
2019-06-10T17:27:33.034Z,83.70
2019-06-10T17:30:19.492Z,82.00
2019-06-10T17:33:05.439Z,83.20
2019-06-10T17:35:46.297Z,83.50
2019-06-10T17:38:28.880Z,85.00
2019-06-10T17:44:09.595Z,84.60
2019-06-10T17:46:49.116Z,84.10
2019-06-10T17:49:35.040Z,83.90
2019-06-10T17:55:03.923Z,84.80
2019-06-10T17:57:43.088Z,83.40
2019-06-10T18:00:20.207Z,84.00
2019-06-10T18:02:57.013Z,84.20
2019-06-10T18:05:37.171Z,81.90
2019-06-10T18:08:16.592Z,82.90
2019-06-10T18:10:57.812Z,84.00
2019-06-10T18:13:35.876Z,83.40
2019-06-10T18:16:13.079Z,83.30
2019-06-10T18:18:49.009Z,84.10
2019-06-10T18:21:24.545Z,84.30
2019-06-10T18:24:07.238Z,83.70
2019-06-10T18:26:42.394Z,83.40
2019-06-10T18:29:17.728Z,83.20
2019-06-10T18:31:53.719Z,83.70
2019-06-10T18:34:29.828Z,83.40
2019-06-10T18:37:06.185Z,83.50
2019-06-10T18:39:43.050Z,83.50
2019-06-10T18:42:18.422Z,83.30
2019-06-10T18:44:58.706Z,83.30
2019-06-10T18:47:37.242Z,83.20
2019-06-10T18:50:13.661Z,83.70
2019-06-10T18:52:53.352Z,82.70
2019-06-10T18:55:37.197Z,83.20
2019-06-10T18:58:11.073Z,83.30
2019-06-10T19:00:59.823Z,83.50
2019-06-10T19:03:28.407Z,83.80
2019-06-10T19:06:08.260Z,84.60
2019-06-10T19:08:45.903Z,83.50
2019-06-10T19:11:21.608Z,83.30
2019-06-10T19:13:59.833Z,84.00
2019-06-10T19:16:33.728Z,84.10
2019-06-10T19:19:12.510Z,83.90
2019-06-10T19:22:01.796Z,83.80
2019-06-10T19:24:24.928Z,84.00
2019-06-10T19:27:05.159Z,84.50
2019-06-10T19:29:45.488Z,84.00
2019-06-10T19:32:15.318Z,83.90
2019-06-10T19:34:52.465Z,83.80
2019-06-10T19:37:28.100Z,84.50
2019-06-10T19:40:05.731Z,84.70
2019-06-10T19:42:44.437Z,84.70
2019-06-10T19:45:18.583Z,84.20
2019-06-10T19:47:56.614Z,84.70
2019-06-10T19:50:34.024Z,84.80
2019-06-10T19:53:07.996Z,85.00
2019-06-10T19:55:48.109Z,84.60
2019-06-10T19:58:23.960Z,85.20
2019-06-10T20:00:59.732Z,85.20
2019-06-10T20:03:37.689Z,85.60
2019-06-10T20:06:13.853Z,85.20
2019-06-10T20:08:52.282Z,85.10
2019-06-10T20:11:27.931Z,85.60
2019-06-10T20:14:03.470Z,86.20
2019-06-10T20:16:39.816Z,85.40
2019-06-10T20:19:16.598Z,85.20
2019-06-10T20:21:54.165Z,85.10
2019-06-10T20:24:29.900Z,86.10
2019-06-10T20:27:25.949Z,85.90
2019-06-10T20:30:10.045Z,85.70
2019-06-10T20:32:37.163Z,86.00
2019-06-10T20:35:15.397Z,86.20
2019-06-10T20:37:53.555Z,85.80
2019-06-10T20:40:27.671Z,85.50
2019-06-10T20:43:03.449Z,85.70
2019-06-10T20:45:39.539Z,85.60
2019-06-10T20:48:17.057Z,86.10
2019-06-10T20:50:53.350Z,85.90
2019-06-10T20:53:27.849Z,86.30
2019-06-10T20:56:04.378Z,86.10
2019-06-10T20:58:46.439Z,86.70
2019-06-10T21:01:24.748Z,86.90
2019-06-10T21:04:03.332Z,87.30
2019-06-10T21:06:41.275Z,86.80
2019-06-10T21:09:18.258Z,86.80
2019-06-10T21:11:54.380Z,85.70
2019-06-10T21:14:34.651Z,86.30
2019-06-10T21:17:12.199Z,86.70
2019-06-10T21:19:47.900Z,86.40
2019-06-10T21:22:22.529Z,86.20
2019-06-10T21:24:57.868Z,85.90
2019-06-10T21:27:35.360Z,85.70
2019-06-10T21:30:11.637Z,85.40
2019-06-10T21:32:49.928Z,85.40
2019-06-10T21:35:25.351Z,85.80
2019-06-10T21:38:01.219Z,84.80
2019-06-10T21:40:38.509Z,85.00
2019-06-10T21:43:14.248Z,85.60
2019-06-10T21:45:57.430Z,86.40
2019-06-10T21:48:32.360Z,87.20
2019-06-10T21:51:07.062Z,87.20
2019-06-10T21:53:42.856Z,87.00
2019-06-10T21:56:21.865Z,87.30
2019-06-10T21:58:56.962Z,87.10
2019-06-10T22:01:34.106Z,88.10
2019-06-10T22:04:13.337Z,87.60
2019-06-10T22:06:49.611Z,88.10
2019-06-10T22:09:24.706Z,88.50
2019-06-10T22:12:02.694Z,88.20
2019-06-10T22:14:38.149Z,87.20
2019-06-10T22:17:13.955Z,87.50
2019-06-10T22:19:50.577Z,87.50
2019-06-10T22:22:26.953Z,87.30
2019-06-10T22:25:03.068Z,86.80
2019-06-10T22:27:38.870Z,86.80
2019-06-10T22:30:15.481Z,87.50
2019-06-10T22:32:54.932Z,87.20
2019-06-10T22:35:35.118Z,87.50
2019-06-10T22:38:13.070Z,89.50
2019-06-10T22:40:53.333Z,90.00
2019-06-10T22:43:28.930Z,90.00
2019-06-10T22:46:04.926Z,89.90
2019-06-10T22:48:42.350Z,90.70
2019-06-10T22:51:22.657Z,90.70
2019-06-10T22:53:59.917Z,90.30
2019-06-10T22:56:34.451Z,90.30
2019-06-10T22:59:10.042Z,90.20
2019-06-10T23:01:47.266Z,90.70
2019-06-10T23:04:22.839Z,90.50
2019-06-10T23:07:03.116Z,90.70
2019-06-10T23:09:38.897Z,90.80
2019-06-10T23:12:16.142Z,90.10
2019-06-10T23:14:54.563Z,89.90
2019-06-10T23:17:31.970Z,89.30
2019-06-10T23:20:06.602Z,89.10
2019-06-10T23:22:44.324Z,88.30
2019-06-10T23:25:21.924Z,87.00
2019-06-10T23:28:00.972Z,87.90
2019-06-10T23:30:45.152Z,86.80
2019-06-10T23:33:22.921Z,86.90
2019-06-10T23:35:58.702Z,86.90
2019-06-10T23:38:33.497Z,85.90
2019-06-10T23:41:08.941Z,85.50
2019-06-10T23:43:46.186Z,84.80
2019-06-10T23:46:22.904Z,83.10
2019-06-10T23:48:59.513Z,80.10
2019-06-10T23:51:33.503Z,81.20
2019-06-10T23:54:12.496Z,81.60
2019-06-10T23:56:52.773Z,81.00
2019-06-10T23:59:33.275Z,81.70
